Portada
METAR-TAF:

METAR-TAF

Aeropuertos :

Lleida-Alguaire

Lérida, España

latitud: 41-43-40N, longitud: 000-32-09E, altitud: 350 m

Observación

El informe se hizo hace 20 minutos, a las 18:00 UTC
Viento 6 kt del suroeste
Temperatura 26°C
Humedad 32%
Presión 1019 hPa
Visibilidad 10 km o más
Escasas nubes a una altura de 5000 ft

METAR: LEDA 261800Z 22006KT 9999 FEW050 26/08 Q1019

Hora: 20:20 (18:20 UTC)


TAF: falta

Observaciones y pronósticos meteorológicos de más de 4000 aeropuertos (mensajes METAR y TAF).

Los puntos amarillos y rojos representan las estaciones disponibles.

Ponga el ratón en el punto deseado para ver el nombre de la estación.

Haga clic para ver las observaciones y los pronósticos meteorológicos.

Para cambiar el mapa : haga clic en los botones verdes con una cruz de color negro para hacer un zoom, en el botón verde con un guión para alejar o en las flechas verdes para mapas adyacentes.


METAR-TAF: